CXA8384 VHHH-ZSHC
Flight info
| Callsign | CXA8384 |
|---|---|
| Flight time | N/A |
| Altitude | 35000 |
| Route | LEKEN1B/25L LEKEN V601 DOTMI/K0850S1130 A470 UGAGO UGAGO13 |
| Aircraft | B738/M-SDE2E3FGHIRWXY/LB1 |
Departure
| Time | N/A |
|---|---|
| Airport | Hong Kong International Airport (VHHH) |
Arrival
| Time | 2026-05-08 09:37 |
|---|---|
| Airport | Hangzhou Xiaoshan International Airport (ZSHC) |
| Time | Latitude | Longitude | Altitude | Speed | Heading |
|---|---|---|---|---|---|
| 2026-05-08 08:18 | 22.95715 | 116.36692 | 35042 ft | 477 kts | 32° |
| 2026-05-08 08:18 | 22.98384 | 116.38902 | 35045 ft | 477 kts | 32° |
| 2026-05-08 08:19 | 23.03632 | 116.43227 | 35042 ft | 476 kts | 32° |
| 2026-05-08 08:19 | 23.08897 | 116.47572 | 35040 ft | 475 kts | 32° |
| 2026-05-08 08:20 | 23.14156 | 116.51921 | 35041 ft | 475 kts | 32° |
| 2026-05-08 08:20 | 23.19408 | 116.56271 | 35046 ft | 474 kts | 32° |
| 2026-05-08 08:21 | 23.24646 | 116.60614 | 35045 ft | 473 kts | 32° |
| 2026-05-08 08:21 | 23.29874 | 116.64953 | 35045 ft | 473 kts | 32° |
| 2026-05-08 08:22 | 23.35106 | 116.69299 | 35048 ft | 473 kts | 32° |
| 2026-05-08 08:22 | 23.40328 | 116.73641 | 35049 ft | 473 kts | 32° |
| 2026-05-08 08:23 | 23.45449 | 116.78168 | 35047 ft | 479 kts | 39° |
| 2026-05-08 08:23 | 23.50087 | 116.83414 | 35052 ft | 482 kts | 41° |
| 2026-05-08 08:24 | 23.54675 | 116.88745 | 35058 ft | 482 kts | 41° |
| 2026-05-08 08:24 | 23.59267 | 116.94002 | 35059 ft | 482 kts | 41° |
| 2026-05-08 08:25 | 23.63918 | 116.99282 | 35062 ft | 483 kts | 41° |
| 2026-05-08 08:25 | 23.68564 | 117.04559 | 35065 ft | 483 kts | 41° |
| 2026-05-08 08:26 | 23.73229 | 117.09870 | 35068 ft | 484 kts | 41° |
| 2026-05-08 08:26 | 23.77943 | 117.15119 | 35068 ft | 483 kts | 38° |
| 2026-05-08 08:27 | 23.82930 | 117.20009 | 35080 ft | 482 kts | 36° |
| 2026-05-08 08:27 | 23.87977 | 117.24829 | 35070 ft | 483 kts | 36° |
| 2026-05-08 08:28 | 23.93002 | 117.29700 | 35098 ft | 483 kts | 36° |
| 2026-05-08 08:28 | 23.98026 | 117.34616 | 35087 ft | 485 kts | 36° |
| 2026-05-08 08:29 | 24.03050 | 117.39545 | 35093 ft | 485 kts | 36° |
| 2026-05-08 08:29 | 24.08077 | 117.44474 | 35107 ft | 484 kts | 36° |
| 2026-05-08 08:30 | 24.13095 | 117.49403 | 35105 ft | 486 kts | 37° |
| 2026-05-08 08:30 | 24.20123 | 117.57518 | 35096 ft | 491 kts | 43° |
| 2026-05-08 08:31 | 24.24671 | 117.63089 | 35094 ft | 490 kts | 43° |
| 2026-05-08 08:31 | 24.29236 | 117.68617 | 35102 ft | 489 kts | 43° |
| 2026-05-08 08:32 | 24.33796 | 117.74102 | 35096 ft | 490 kts | 42° |
| 2026-05-08 08:32 | 24.38384 | 117.79621 | 35103 ft | 490 kts | 43° |
| 2026-05-08 08:33 | 24.42970 | 117.85146 | 35107 ft | 490 kts | 43° |
| 2026-05-08 08:33 | 24.47562 | 117.90690 | 35118 ft | 490 kts | 42° |
| 2026-05-08 08:34 | 24.52142 | 117.96226 | 35121 ft | 490 kts | 42° |
| 2026-05-08 08:34 | 24.56715 | 118.01756 | 35123 ft | 489 kts | 42° |
| 2026-05-08 08:35 | 24.61403 | 118.07159 | 35122 ft | 487 kts | 40° |
| 2026-05-08 08:35 | 24.66126 | 118.12473 | 35125 ft | 487 kts | 40° |
| 2026-05-08 08:36 | 24.70772 | 118.17774 | 35131 ft | 488 kts | 40° |
| 2026-05-08 08:36 | 24.75487 | 118.23146 | 35125 ft | 488 kts | 40° |
| 2026-05-08 08:37 | 24.80194 | 118.28501 | 35123 ft | 487 kts | 40° |
| 2026-05-08 08:37 | 24.84903 | 118.33868 | 35136 ft | 487 kts | 40° |
| 2026-05-08 08:38 | 24.89605 | 118.39236 | 35136 ft | 487 kts | 40° |
| 2026-05-08 08:38 | 24.94304 | 118.44610 | 35142 ft | 486 kts | 40° |
| 2026-05-08 08:39 | 24.98990 | 118.49973 | 35145 ft | 486 kts | 40° |
| 2026-05-08 08:39 | 25.03681 | 118.55350 | 35153 ft | 487 kts | 40° |
| 2026-05-08 08:40 | 25.08396 | 118.60756 | 35131 ft | 490 kts | 40° |
| 2026-05-08 08:40 | 25.13044 | 118.66218 | 35125 ft | 492 kts | 42° |
| 2026-05-08 08:41 | 25.17636 | 118.71788 | 35144 ft | 490 kts | 42° |
| 2026-05-08 08:41 | 25.22221 | 118.77340 | 35161 ft | 488 kts | 42° |
| 2026-05-08 08:42 | 25.26802 | 118.82865 | 35155 ft | 487 kts | 42° |
| 2026-05-08 08:42 | 25.30633 | 118.87487 | 35160 ft | 486 kts | 42° |
| 2026-05-08 08:43 | 25.35198 | 118.92993 | 35162 ft | 486 kts | 41° |
| 2026-05-08 08:43 | 25.39802 | 118.98391 | 35167 ft | 486 kts | 40° |
| 2026-05-08 08:44 | 25.44458 | 119.03798 | 35179 ft | 486 kts | 40° |
| 2026-05-08 08:44 | 25.49116 | 119.09236 | 35176 ft | 487 kts | 41° |
| 2026-05-08 08:45 | 25.53767 | 119.14689 | 35186 ft | 488 kts | 41° |
| 2026-05-08 08:45 | 25.58433 | 119.20170 | 35180 ft | 488 kts | 41° |
| 2026-05-08 08:46 | 25.63101 | 119.25658 | 35176 ft | 490 kts | 40° |
| 2026-05-08 08:46 | 25.67761 | 119.31144 | 35195 ft | 490 kts | 41° |
| 2026-05-08 08:47 | 25.72606 | 119.36406 | 35188 ft | 482 kts | 30° |
| 2026-05-08 08:47 | 25.78315 | 119.40031 | 35203 ft | 466 kts | 13° |
| 2026-05-08 08:48 | 25.84445 | 119.42152 | 35209 ft | 461 kts | 8° |
| 2026-05-08 08:48 | 25.90613 | 119.44153 | 35207 ft | 462 kts | 9° |
| 2026-05-08 08:49 | 25.96787 | 119.46215 | 35211 ft | 464 kts | 9° |
| 2026-05-08 08:49 | 26.02968 | 119.48315 | 35205 ft | 465 kts | 9° |
| 2026-05-08 08:50 | 26.09158 | 119.50424 | 35209 ft | 465 kts | 9° |
| 2026-05-08 08:50 | 26.15341 | 119.52530 | 35216 ft | 466 kts | 9° |
| 2026-05-08 08:51 | 26.21546 | 119.54517 | 35219 ft | 463 kts | 3° |
| 2026-05-08 08:51 | 26.24735 | 119.54966 | 35180 ft | 448 kts | 353° |
| 2026-05-08 08:51 | 26.27782 | 119.54993 | 35204 ft | 441 kts | 352° |
| 2026-05-08 08:52 | 26.33904 | 119.54947 | 35221 ft | 441 kts | 352° |
| 2026-05-08 08:52 | 26.40059 | 119.55006 | 35215 ft | 442 kts | 352° |
| 2026-05-08 08:53 | 26.46217 | 119.55058 | 35217 ft | 443 kts | 352° |
| 2026-05-08 08:53 | 26.52382 | 119.55096 | 35211 ft | 443 kts | 352° |
| 2026-05-08 08:54 | 26.58550 | 119.55135 | 35227 ft | 444 kts | 352° |
| 2026-05-08 08:54 | 26.64738 | 119.55176 | 35221 ft | 445 kts | 352° |
| 2026-05-08 08:55 | 26.70929 | 119.55219 | 35214 ft | 445 kts | 352° |
| 2026-05-08 08:55 | 26.77117 | 119.55262 | 35217 ft | 445 kts | 352° |
| 2026-05-08 08:56 | 26.83298 | 119.55305 | 35213 ft | 445 kts | 352° |
| 2026-05-08 08:56 | 26.89488 | 119.55347 | 35217 ft | 444 kts | 352° |
| 2026-05-08 08:57 | 26.95675 | 119.55390 | 35202 ft | 444 kts | 352° |
| 2026-05-08 08:57 | 27.01844 | 119.55433 | 35220 ft | 443 kts | 352° |
| 2026-05-08 08:58 | 27.08020 | 119.55476 | 35200 ft | 443 kts | 352° |
| 2026-05-08 08:58 | 27.14170 | 119.55519 | 35209 ft | 441 kts | 352° |
| 2026-05-08 08:59 | 27.20262 | 119.55561 | 35203 ft | 440 kts | 352° |
| 2026-05-08 08:59 | 27.26382 | 119.55602 | 35215 ft | 439 kts | 351° |
| 2026-05-08 09:00 | 27.32490 | 119.55607 | 35216 ft | 439 kts | 351° |
| 2026-05-08 09:00 | 27.38607 | 119.55600 | 35214 ft | 440 kts | 351° |
| 2026-05-08 09:01 | 27.44728 | 119.55601 | 35218 ft | 440 kts | 351° |
| 2026-05-08 09:01 | 27.50850 | 119.55634 | 35224 ft | 441 kts | 351° |
| 2026-05-08 09:02 | 27.56995 | 119.55679 | 35224 ft | 441 kts | 351° |
| 2026-05-08 09:02 | 27.63129 | 119.55720 | 35226 ft | 441 kts | 351° |
| 2026-05-08 09:03 | 27.69269 | 119.55759 | 35231 ft | 440 kts | 351° |
| 2026-05-08 09:03 | 27.75377 | 119.55797 | 35244 ft | 439 kts | 351° |
| 2026-05-08 09:04 | 27.81484 | 119.55834 | 35255 ft | 439 kts | 351° |
| 2026-05-08 09:04 | 27.87586 | 119.55872 | 35253 ft | 439 kts | 351° |
| 2026-05-08 09:05 | 27.93697 | 119.55914 | 35257 ft | 440 kts | 351° |
| 2026-05-08 09:05 | 27.99814 | 119.56018 | 35266 ft | 439 kts | 351° |
| 2026-05-08 09:06 | 28.05919 | 119.56129 | 35273 ft | 439 kts | 351° |
| 2026-05-08 09:06 | 28.12042 | 119.56250 | 35268 ft | 441 kts | 352° |
| 2026-05-08 09:07 | 28.18195 | 119.56574 | 35259 ft | 443 kts | 353° |
| 2026-05-08 09:07 | 28.24354 | 119.56942 | 35274 ft | 443 kts | 353° |
| 2026-05-08 09:08 | 28.30508 | 119.57285 | 35269 ft | 442 kts | 352° |
| 2026-05-08 09:08 | 28.36681 | 119.57609 | 34797 ft | 449 kts | 352° |
| 2026-05-08 09:09 | 28.39758 | 119.57773 | 34223 ft | 448 kts | 352° |
| 2026-05-08 09:09 | 28.42861 | 119.57942 | 33550 ft | 447 kts | 353° |
| 2026-05-08 09:09 | 28.45961 | 119.58110 | 33064 ft | 443 kts | 353° |
| 2026-05-08 09:09 | 28.49016 | 119.58289 | 32550 ft | 440 kts | 353° |
| 2026-05-08 09:10 | 28.52053 | 119.58478 | 32069 ft | 436 kts | 354° |
| 2026-05-08 09:10 | 28.55067 | 119.58670 | 31597 ft | 433 kts | 354° |
| 2026-05-08 09:10 | 28.58066 | 119.58860 | 31124 ft | 430 kts | 354° |
| 2026-05-08 09:10 | 28.61050 | 119.59047 | 30623 ft | 427 kts | 354° |
| 2026-05-08 09:11 | 28.64009 | 119.59231 | 30141 ft | 425 kts | 354° |
| 2026-05-08 09:11 | 28.66958 | 119.59414 | 29598 ft | 422 kts | 354° |
| 2026-05-08 09:11 | 28.69880 | 119.59595 | 29100 ft | 419 kts | 354° |
| 2026-05-08 09:11 | 28.72777 | 119.59776 | 28609 ft | 415 kts | 354° |
| 2026-05-08 09:12 | 28.75644 | 119.59954 | 28124 ft | 412 kts | 354° |
| 2026-05-08 09:12 | 28.78492 | 119.60131 | 27656 ft | 408 kts | 355° |
| 2026-05-08 09:12 | 28.81313 | 119.60307 | 27215 ft | 404 kts | 354° |
| 2026-05-08 09:12 | 28.84113 | 119.60480 | 26730 ft | 402 kts | 355° |
| 2026-05-08 09:13 | 28.86900 | 119.60652 | 26269 ft | 399 kts | 355° |
| 2026-05-08 09:13 | 28.89661 | 119.60823 | 25800 ft | 397 kts | 355° |
| 2026-05-08 09:13 | 28.92415 | 119.60994 | 25350 ft | 396 kts | 355° |
| 2026-05-08 09:13 | 28.95161 | 119.61163 | 24866 ft | 395 kts | 355° |
| 2026-05-08 09:14 | 28.97903 | 119.61333 | 24420 ft | 393 kts | 355° |
| 2026-05-08 09:14 | 29.00629 | 119.61503 | 23955 ft | 392 kts | 355° |
| 2026-05-08 09:14 | 29.03350 | 119.61673 | 23439 ft | 391 kts | 355° |
| 2026-05-08 09:14 | 29.06065 | 119.61842 | 22956 ft | 389 kts | 355° |
| 2026-05-08 09:15 | 29.08752 | 119.62011 | 22483 ft | 386 kts | 355° |
| 2026-05-08 09:15 | 29.11426 | 119.62179 | 22009 ft | 383 kts | 355° |
| 2026-05-08 09:15 | 29.14080 | 119.62345 | 21552 ft | 381 kts | 356° |
| 2026-05-08 09:15 | 29.16718 | 119.62510 | 21110 ft | 378 kts | 356° |
| 2026-05-08 09:16 | 29.19333 | 119.62673 | 20682 ft | 376 kts | 356° |
| 2026-05-08 09:16 | 29.21933 | 119.62835 | 20241 ft | 374 kts | 356° |
| 2026-05-08 09:16 | 29.24520 | 119.62997 | 19797 ft | 372 kts | 356° |
| 2026-05-08 09:16 | 29.27095 | 119.63160 | 19366 ft | 369 kts | 356° |
| 2026-05-08 09:17 | 29.29647 | 119.63319 | 18940 ft | 366 kts | 356° |
| 2026-05-08 09:17 | 29.32186 | 119.63476 | 18500 ft | 366 kts | 356° |
| 2026-05-08 09:17 | 29.34723 | 119.63634 | 18022 ft | 364 kts | 357° |
| 2026-05-08 09:17 | 29.37239 | 119.63792 | 17575 ft | 361 kts | 357° |
| 2026-05-08 09:18 | 29.39746 | 119.63949 | 17143 ft | 359 kts | 357° |
| 2026-05-08 09:18 | 29.42234 | 119.64105 | 16717 ft | 357 kts | 357° |
| 2026-05-08 09:18 | 29.44703 | 119.64260 | 16300 ft | 355 kts | 358° |
| 2026-05-08 09:18 | 29.47160 | 119.64415 | 15884 ft | 352 kts | 358° |
| 2026-05-08 09:19 | 29.49603 | 119.64568 | 15479 ft | 351 kts | 358° |
| 2026-05-08 09:19 | 29.52039 | 119.64720 | 15056 ft | 350 kts | 358° |
| 2026-05-08 09:19 | 29.54465 | 119.64872 | 14653 ft | 349 kts | 359° |
| 2026-05-08 09:19 | 29.56888 | 119.64981 | 14282 ft | 347 kts | 357° |
| 2026-05-08 09:20 | 29.59264 | 119.65033 | 13913 ft | 345 kts | 357° |
| 2026-05-08 09:20 | 29.61692 | 119.65082 | 13451 ft | 344 kts | 358° |
| 2026-05-08 09:20 | 29.64050 | 119.65152 | 13074 ft | 342 kts | 359° |
| 2026-05-08 09:20 | 29.66420 | 119.65307 | 12676 ft | 341 kts | 0° |
| 2026-05-08 09:21 | 29.68776 | 119.65482 | 12326 ft | 337 kts | 1° |
| 2026-05-08 09:21 | 29.71117 | 119.65648 | 11890 ft | 336 kts | 1° |
| 2026-05-08 09:22 | 29.81306 | 119.73878 | 10150 ft | 293 kts | 53° |
| 2026-05-08 09:23 | 29.82457 | 119.75755 | 10021 ft | 282 kts | 53° |
| 2026-05-08 09:23 | 29.83577 | 119.77572 | 9761 ft | 277 kts | 53° |
| 2026-05-08 09:23 | 29.84688 | 119.79364 | 9485 ft | 272 kts | 52° |
| 2026-05-08 09:23 | 29.85779 | 119.81118 | 9206 ft | 268 kts | 53° |
| 2026-05-08 09:24 | 29.86863 | 119.82858 | 8931 ft | 264 kts | 53° |
| 2026-05-08 09:24 | 29.87931 | 119.84574 | 8667 ft | 263 kts | 53° |
| 2026-05-08 09:24 | 29.88995 | 119.86282 | 8398 ft | 263 kts | 53° |
| 2026-05-08 09:24 | 29.90059 | 119.87999 | 8127 ft | 264 kts | 55° |
| 2026-05-08 09:25 | 29.90967 | 119.89849 | 7853 ft | 265 kts | 62° |
| 2026-05-08 09:25 | 29.91785 | 119.91746 | 7577 ft | 266 kts | 63° |
| 2026-05-08 09:25 | 29.92612 | 119.93656 | 7298 ft | 266 kts | 63° |
| 2026-05-08 09:25 | 29.93451 | 119.95563 | 7017 ft | 267 kts | 63° |
| 2026-05-08 09:26 | 29.94299 | 119.97482 | 6717 ft | 269 kts | 63° |
| 2026-05-08 09:26 | 29.95163 | 119.99405 | 6376 ft | 271 kts | 63° |
| 2026-05-08 09:26 | 29.96032 | 120.01334 | 6062 ft | 271 kts | 63° |
| 2026-05-08 09:26 | 29.96896 | 120.03253 | 5725 ft | 267 kts | 63° |
| 2026-05-08 09:27 | 29.97741 | 120.05128 | 5432 ft | 262 kts | 64° |
| 2026-05-08 09:27 | 29.98573 | 120.06976 | 5109 ft | 257 kts | 64° |
| 2026-05-08 09:27 | 29.99379 | 120.08774 | 4828 ft | 246 kts | 63° |
| 2026-05-08 09:27 | 30.00155 | 120.10501 | 4573 ft | 240 kts | 64° |
| 2026-05-08 09:28 | 30.00903 | 120.12157 | 4410 ft | 221 kts | 64° |
| 2026-05-08 09:28 | 30.01579 | 120.13662 | 4274 ft | 201 kts | 64° |
| 2026-05-08 09:28 | 30.02198 | 120.15039 | 4103 ft | 187 kts | 64° |
| 2026-05-08 09:28 | 30.02796 | 120.16377 | 3607 ft | 190 kts | 64° |
| 2026-05-08 09:29 | 30.03427 | 120.17699 | 3232 ft | 186 kts | 53° |
| 2026-05-08 09:29 | 30.04492 | 120.18497 | 3063 ft | 187 kts | 18° |
| 2026-05-08 09:29 | 30.05799 | 120.18502 | 2999 ft | 194 kts | 345° |
| 2026-05-08 09:29 | 30.07025 | 120.17846 | 3008 ft | 195 kts | 337° |
| 2026-05-08 09:30 | 30.08232 | 120.17142 | 3001 ft | 194 kts | 336° |
| 2026-05-08 09:30 | 30.09478 | 120.16606 | 2977 ft | 188 kts | 2° |
| 2026-05-08 09:30 | 30.10315 | 120.16822 | 2997 ft | 183 kts | 33° |
| 2026-05-08 09:30 | 30.11129 | 120.17847 | 3006 ft | 169 kts | 57° |
| 2026-05-08 09:31 | 30.11782 | 120.18918 | 2997 ft | 160 kts | 58° |
| 2026-05-08 09:31 | 30.12384 | 120.19910 | 2990 ft | 145 kts | 58° |
| 2026-05-08 09:31 | 30.12925 | 120.20893 | 3003 ft | 145 kts | 61° |
| 2026-05-08 09:31 | 30.13421 | 120.21900 | 3011 ft | 145 kts | 64° |
| 2026-05-08 09:32 | 30.13899 | 120.22933 | 2997 ft | 145 kts | 65° |
| 2026-05-08 09:32 | 30.14363 | 120.23961 | 3009 ft | 145 kts | 64° |
| 2026-05-08 09:32 | 30.14825 | 120.25005 | 3010 ft | 146 kts | 64° |
| 2026-05-08 09:32 | 30.15285 | 120.26046 | 2990 ft | 144 kts | 65° |
| 2026-05-08 09:33 | 30.15740 | 120.27080 | 2834 ft | 145 kts | 64° |
| 2026-05-08 09:33 | 30.16197 | 120.28117 | 2651 ft | 144 kts | 64° |
| 2026-05-08 09:33 | 30.16653 | 120.29152 | 2461 ft | 145 kts | 64° |
| 2026-05-08 09:33 | 30.17115 | 120.30202 | 2255 ft | 147 kts | 64° |
| 2026-05-08 09:34 | 30.17576 | 120.31251 | 2062 ft | 147 kts | 64° |
| 2026-05-08 09:34 | 30.18047 | 120.32319 | 1864 ft | 147 kts | 64° |
| 2026-05-08 09:34 | 30.18506 | 120.33362 | 1655 ft | 148 kts | 64° |
| 2026-05-08 09:34 | 30.18999 | 120.34403 | 1390 ft | 148 kts | 62° |
| 2026-05-08 09:35 | 30.19496 | 120.35430 | 1165 ft | 143 kts | 64° |
| 2026-05-08 09:35 | 30.19937 | 120.36462 | 1018 ft | 143 kts | 65° |
| 2026-05-08 09:35 | 30.20373 | 120.37508 | 951 ft | 147 kts | 65° |
| 2026-05-08 09:35 | 30.20817 | 120.38579 | 781 ft | 148 kts | 65° |
| 2026-05-08 09:36 | 30.21276 | 120.39642 | 575 ft | 146 kts | 63° |
| 2026-05-08 09:36 | 30.21738 | 120.40684 | 318 ft | 145 kts | 63° |
| 2026-05-08 09:36 | 30.22194 | 120.41718 | 84 ft | 143 kts | 63° |
| 2026-05-08 09:36 | 30.22620 | 120.42687 | 31 ft | 119 kts | 70° |
| 2026-05-08 09:37 | 30.22925 | 120.43382 | 33 ft | 68 kts | 63° |
| 2026-05-08 09:37 | 30.23108 | 120.43681 | 32 ft | 39 kts | 37° |
| 2026-05-08 09:37 | 30.23255 | 120.43793 | 30 ft | 18 kts | 22° |
| 2026-05-08 09:37 | 30.23356 | 120.43772 | 29 ft | 12 kts | 338° |
| 2026-05-08 09:38 | 30.23376 | 120.43772 | 31 ft | 6 kts | 24° |
| 2026-05-08 09:38 | 30.23405 | 120.43823 | 31 ft | 8 kts | 66° |
| 2026-05-08 09:38 | 30.23435 | 120.43889 | 31 ft | 10 kts | 61° |
| 2026-05-08 09:38 | 30.23474 | 120.43954 | 31 ft | 11 kts | 27° |
| 2026-05-08 09:39 | 30.23502 | 120.43948 | 30 ft | 7 kts | 330° |
| 2026-05-08 09:39 | 30.23555 | 120.43914 | 29 ft | 9 kts | 333° |
| 2026-05-08 09:39 | 30.23613 | 120.43883 | 31 ft | 10 kts | 336° |
| 2026-05-08 09:39 | 30.23681 | 120.43846 | 31 ft | 11 kts | 334° |
| 2026-05-08 09:40 | 30.23747 | 120.43806 | 31 ft | 11 kts | 332° |
| 2026-05-08 09:40 | 30.23811 | 120.43767 | 31 ft | 10 kts | 333° |
| 2026-05-08 09:40 | 30.23873 | 120.43731 | 31 ft | 10 kts | 334° |
| 2026-05-08 09:40 | 30.23954 | 120.43685 | 31 ft | 15 kts | 334° |
| 2026-05-08 09:41 | 30.24050 | 120.43629 | 30 ft | 15 kts | 333° |
| 2026-05-08 09:41 | 30.24141 | 120.43576 | 31 ft | 15 kts | 334° |
| 2026-05-08 09:41 | 30.24229 | 120.43522 | 31 ft | 14 kts | 330° |
| 2026-05-08 09:41 | 30.24232 | 120.43423 | 30 ft | 14 kts | 249° |
| 2026-05-08 09:42 | 30.24191 | 120.43326 | 31 ft | 13 kts | 242° |
| 2026-05-08 09:42 | 30.24184 | 120.43280 | 31 ft | 1 kts | 291° |
| 2026-05-08 09:42 | 30.24205 | 120.43257 | 30 ft | 6 kts | 328° |
| 2026-05-08 09:42 | 30.24223 | 120.43245 | 30 ft | 1 kts | 333° |
| 2026-05-08 09:43 | 30.24229 | 120.43242 | 31 ft | 1 kts | 333° |
| 2026-05-08 09:43 | 30.24231 | 120.43241 | 31 ft | 0 kts | 333° |